createdAt,value
2023-05-23T00:01:55.166Z,61.35
2023-05-23T00:04:22.359Z,61.67
2023-05-23T00:06:50.705Z,60.93
2023-05-23T00:09:18.207Z,60.55
2023-05-23T00:11:45.764Z,62.00
2023-05-23T00:14:15.028Z,61.20
2023-05-23T00:16:44.888Z,60.28
2023-05-23T00:19:15.102Z,60.78
2023-05-23T00:21:48.764Z,61.03
2023-05-23T00:24:18.596Z,60.13
2023-05-23T00:26:46.847Z,61.15
2023-05-23T00:29:16.641Z,61.17
2023-05-23T00:31:48.007Z,61.05
2023-05-23T00:34:19.202Z,61.08
2023-05-23T00:36:48.015Z,61.15
2023-05-23T00:39:19.978Z,61.40
2023-05-23T00:41:52.426Z,60.40
2023-05-23T00:44:21.670Z,61.07
2023-05-23T00:46:54.953Z,60.60
2023-05-23T00:49:22.440Z,60.40
2023-05-23T00:51:50.845Z,60.67
2023-05-23T00:54:29.625Z,60.95
2023-05-23T00:56:57.117Z,60.37
2023-05-23T00:59:28.000Z,61.10
2023-05-23T01:01:57.537Z,60.70
2023-05-23T01:04:28.499Z,60.33
2023-05-23T01:06:57.056Z,59.70
2023-05-23T01:09:26.174Z,60.90
2023-05-23T01:12:22.681Z,61.03
2023-05-23T01:15:13.755Z,59.53
2023-05-23T01:18:08.541Z,59.87
2023-05-23T01:20:45.362Z,60.30
2023-05-23T01:23:44.056Z,60.73
2023-05-23T01:26:39.496Z,59.90
2023-05-23T01:29:15.311Z,60.43
2023-05-23T01:31:47.940Z,60.47
2023-05-23T01:34:17.131Z,59.57
2023-05-23T01:36:44.720Z,60.47
2023-05-23T01:39:12.481Z,59.80
2023-05-23T01:41:41.032Z,60.13
2023-05-23T01:44:08.860Z,60.30
2023-05-23T01:46:39.285Z,60.80
2023-05-23T01:49:09.460Z,60.43
2023-05-23T01:51:37.109Z,61.23
2023-05-23T01:54:04.433Z,60.57
2023-05-23T01:56:32.875Z,60.87
2023-05-23T01:59:02.051Z,60.23
2023-05-23T02:01:29.501Z,59.80
2023-05-23T02:03:58.427Z,61.33
2023-05-23T02:06:25.421Z,60.97
2023-05-23T02:08:52.663Z,60.37
2023-05-23T02:11:19.720Z,60.23
2023-05-23T02:13:46.839Z,60.73
2023-05-23T02:16:14.037Z,59.93
2023-05-23T02:18:41.144Z,60.83
2023-05-23T02:21:08.685Z,60.90
2023-05-23T02:23:37.931Z,60.43
2023-05-23T02:26:05.124Z,60.53
2023-05-23T02:28:32.159Z,61.10
2023-05-23T02:30:59.328Z,60.17
2023-05-23T02:33:26.350Z,61.30
2023-05-23T02:35:55.368Z,60.97
2023-05-23T02:38:22.392Z,60.87
2023-05-23T02:40:51.784Z,61.23
2023-05-23T02:43:18.840Z,60.03
2023-05-23T02:45:46.242Z,61.20
2023-05-23T02:48:13.390Z,61.30
2023-05-23T02:50:40.634Z,60.37
2023-05-23T02:53:10.695Z,61.50
2023-05-23T02:55:39.192Z,60.80
2023-05-23T02:58:07.062Z,60.57
2023-05-23T03:00:34.121Z,60.57
2023-05-23T03:03:01.776Z,60.83
2023-05-23T03:05:28.776Z,59.87
2023-05-23T03:07:55.845Z,60.73
2023-05-23T03:10:22.801Z,60.53
2023-05-23T03:12:49.818Z,61.10
2023-05-23T03:15:17.732Z,60.43
2023-05-23T03:17:45.507Z,60.83
2023-05-23T03:20:15.709Z,60.87
2023-05-23T03:22:45.452Z,61.53
2023-05-23T03:25:12.570Z,61.43
2023-05-23T03:27:39.558Z,61.57
2023-05-23T03:30:08.058Z,61.20
2023-05-23T03:32:36.135Z,60.60
2023-05-23T03:35:03.246Z,61.20
2023-05-23T03:37:30.207Z,60.93
2023-05-23T03:39:57.374Z,61.40
2023-05-23T03:42:24.515Z,61.67
2023-05-23T03:44:51.577Z,61.27
2023-05-23T03:47:19.194Z,63.00
2023-05-23T03:49:47.277Z,86.33
2023-05-23T03:52:14.862Z,61.23
2023-05-23T03:54:42.325Z,60.70
2023-05-23T03:57:09.730Z,62.70
2023-05-23T03:59:37.898Z,60.57
2023-05-23T04:02:08.932Z,60.67
2023-05-23T04:04:36.514Z,61.70
2023-05-23T04:07:05.695Z,61.83
2023-05-23T04:09:33.011Z,61.27
2023-05-23T04:12:01.128Z,61.63
2023-05-23T04:14:29.335Z,61.33
2023-05-23T04:16:57.987Z,61.23
2023-05-23T04:19:25.032Z,61.30
2023-05-23T04:21:52.855Z,60.10
2023-05-23T04:24:19.937Z,60.30
2023-05-23T04:26:46.951Z,61.45
2023-05-23T04:29:13.915Z,61.30
2023-05-23T04:31:42.284Z,61.43
2023-05-23T04:34:09.888Z,61.70
2023-05-23T04:36:40.315Z,61.03
2023-05-23T04:39:08.510Z,61.08
2023-05-23T04:41:45.359Z,60.95
2023-05-23T04:44:26.775Z,60.78
2023-05-23T04:47:11.616Z,61.65
2023-05-23T04:49:57.649Z,61.50
2023-05-23T04:52:25.553Z,61.58
2023-05-23T04:54:54.142Z,61.67
2023-05-23T04:57:22.206Z,62.15
2023-05-23T04:59:49.419Z,61.90
2023-05-23T05:02:16.489Z,61.47
2023-05-23T05:04:44.428Z,61.72
2023-05-23T05:07:11.879Z,61.97
2023-05-23T05:09:39.587Z,62.40
2023-05-23T05:12:07.247Z,62.85
2023-05-23T05:14:34.387Z,62.38
2023-05-23T05:17:02.908Z,62.13
2023-05-23T05:19:37.752Z,62.50
2023-05-23T05:22:08.070Z,61.97
2023-05-23T05:24:35.460Z,62.47
2023-05-23T05:27:02.623Z,63.65
2023-05-23T05:29:31.319Z,63.15
2023-05-23T05:31:58.722Z,62.35
2023-05-23T05:34:25.885Z,63.90
2023-05-23T05:36:56.092Z,63.03
2023-05-23T05:39:26.481Z,62.58
2023-05-23T05:41:54.163Z,63.10
2023-05-23T05:44:21.607Z,63.33
2023-05-23T05:46:48.977Z,68.80
2023-05-23T05:49:16.258Z,62.83
2023-05-23T05:51:45.548Z,83.20
2023-05-23T05:54:13.083Z,64.50
2023-05-23T05:56:40.170Z,64.65
2023-05-23T05:59:07.404Z,63.38
2023-05-23T06:01:37.930Z,62.75
2023-05-23T06:04:06.084Z,64.00
2023-05-23T06:06:33.537Z,63.03
2023-05-23T06:09:00.655Z,63.88
2023-05-23T06:11:27.929Z,62.30
2023-05-23T06:13:55.115Z,62.97
2023-05-23T06:16:23.510Z,62.70
2023-05-23T06:18:50.672Z,62.83
2023-05-23T06:21:18.125Z,63.97
2023-05-23T06:23:48.953Z,63.60
2023-05-23T06:26:15.966Z,63.15
2023-05-23T06:28:43.181Z,64.45
2023-05-23T06:31:10.399Z,63.35
2023-05-23T06:33:37.611Z,63.97
2023-05-23T06:36:04.747Z,63.70
2023-05-23T06:38:35.555Z,64.30
2023-05-23T06:41:03.772Z,63.45
2023-05-23T06:43:31.571Z,63.85
2023-05-23T06:46:15.945Z,64.22
2023-05-23T06:48:43.261Z,63.38
2023-05-23T06:51:11.152Z,62.83
2023-05-23T06:53:38.266Z,59.38
2023-05-23T06:56:05.993Z,63.38
2023-05-23T06:58:41.415Z,63.45
2023-05-23T07:01:08.723Z,63.47
2023-05-23T07:03:41.681Z,62.63
2023-05-23T07:06:09.162Z,63.83
2023-05-23T07:08:36.686Z,63.90
2023-05-23T07:11:06.596Z,63.75
2023-05-23T07:13:40.128Z,64.03
2023-05-23T07:16:07.699Z,63.08
2023-05-23T07:18:40.021Z,65.05
2023-05-23T07:21:07.111Z,63.05
2023-05-23T07:23:34.622Z,63.70
2023-05-23T07:26:03.407Z,63.80
2023-05-23T07:28:45.142Z,62.80
2023-05-23T07:31:13.656Z,64.13
2023-05-23T07:33:41.689Z,63.42
2023-05-23T07:36:11.941Z,62.33
2023-05-23T07:38:39.111Z,56.20
2023-05-23T07:41:11.388Z,57.22
2023-05-23T07:43:40.858Z,56.38
2023-05-23T07:46:08.185Z,54.90
2023-05-23T07:48:35.930Z,54.75
2023-05-23T07:51:04.164Z,55.40
2023-05-23T07:53:31.562Z,57.35
2023-05-23T07:55:58.954Z,55.92
2023-05-23T07:58:31.145Z,57.42
2023-05-23T08:00:59.701Z,58.95
2023-05-23T08:03:47.153Z,59.85
2023-05-23T08:06:21.283Z,59.35
2023-05-23T08:08:48.456Z,60.33
2023-05-23T08:11:16.125Z,57.95
2023-05-23T08:13:47.535Z,59.53
2023-05-23T08:16:35.766Z,58.65
2023-05-23T08:19:03.809Z,60.08
2023-05-23T08:21:31.955Z,60.40
2023-05-23T08:24:00.097Z,58.25
2023-05-23T08:26:30.543Z,56.90
2023-05-23T08:28:57.673Z,57.47
2023-05-23T08:31:24.995Z,54.97
2023-05-23T08:33:52.220Z,56.40
2023-05-23T08:36:19.745Z,57.58
2023-05-23T08:38:47.885Z,91.22
2023-05-23T08:41:24.196Z,76.30
2023-05-23T08:44:00.742Z,57.30
2023-05-23T08:46:34.709Z,53.22
2023-05-23T08:49:02.333Z,54.17
2023-05-23T08:51:32.949Z,54.10
2023-05-23T08:54:04.693Z,4.22
2023-05-23T08:56:33.082Z,3.88
2023-05-23T08:59:00.196Z,4.93
2023-05-23T09:01:28.547Z,66.00
2023-05-23T09:04:04.603Z,61.95
2023-05-23T09:06:40.760Z,65.32
2023-05-23T09:09:09.481Z,53.88
2023-05-23T09:11:37.222Z,49.75
2023-05-23T09:14:08.381Z,6.63
2023-05-23T09:16:36.635Z,16.75
2023-05-23T09:19:14.763Z,24.92
2023-05-23T09:21:48.428Z,22.90
2023-05-23T09:24:20.643Z,15.32
2023-05-23T09:26:48.494Z,13.73
2023-05-23T09:29:21.247Z,24.98
2023-05-23T09:31:48.773Z,25.40
2023-05-23T09:34:15.905Z,6.40
2023-05-23T09:36:44.216Z,3.15
2023-05-23T09:39:12.961Z,30.75
2023-05-23T09:41:40.459Z,15.20
2023-05-23T09:44:09.473Z,17.35
2023-05-23T09:46:40.596Z,13.30
2023-05-23T09:49:18.500Z,17.17
2023-05-23T09:52:01.435Z,35.92
2023-05-23T09:54:28.518Z,26.23
2023-05-23T09:56:57.217Z,24.17
2023-05-23T09:59:29.037Z,30.58
2023-05-23T10:01:58.194Z,89.63
2023-05-23T10:04:26.345Z,11.60
2023-05-23T10:07:17.254Z,59.90
2023-05-23T10:09:56.788Z,53.53
2023-05-23T10:12:45.075Z,47.88
2023-05-23T10:15:16.910Z,43.85
2023-05-23T10:18:01.994Z,21.73
2023-05-23T10:20:32.363Z,47.80
2023-05-23T10:23:01.506Z,43.72
2023-05-23T10:25:29.582Z,31.23
2023-05-23T10:27:59.920Z,6.10
2023-05-23T10:30:29.540Z,4.13
2023-05-23T10:32:58.261Z,5.13
2023-05-23T10:35:47.902Z,5.00
2023-05-23T10:38:32.103Z,4.43
2023-05-23T10:41:23.286Z,3.65
2023-05-23T10:44:13.282Z,3.92
2023-05-23T10:47:04.468Z,5.22
2023-05-23T10:49:46.413Z,3.30
2023-05-23T10:52:17.129Z,5.07
2023-05-23T10:54:52.444Z,6.78
2023-05-23T10:57:30.400Z,3.97
2023-05-23T10:59:57.629Z,4.30
2023-05-23T11:02:29.481Z,4.10
2023-05-23T11:05:22.903Z,4.47
2023-05-23T11:08:27.436Z,3.92
2023-05-23T11:11:03.899Z,9.15
2023-05-23T11:14:00.734Z,4.28
2023-05-23T11:16:40.357Z,3.35
2023-05-23T11:19:19.569Z,4.22
2023-05-23T11:21:53.048Z,4.32
2023-05-23T11:24:20.750Z,8.55
2023-05-23T11:27:01.393Z,14.88
2023-05-23T11:29:28.994Z,52.03
2023-05-23T11:31:57.420Z,48.92
2023-05-23T11:34:27.327Z,24.88
2023-05-23T11:36:57.542Z,5.10
2023-05-23T11:39:24.813Z,5.93
2023-05-23T11:42:01.976Z,7.78
2023-05-23T11:44:29.555Z,10.27
2023-05-23T11:47:06.387Z,60.08
2023-05-23T11:49:38.047Z,58.42
2023-05-23T11:52:09.237Z,52.30
2023-05-23T11:54:36.514Z,51.95
2023-05-23T11:57:04.025Z,50.28
2023-05-23T11:59:31.446Z,48.53
2023-05-23T12:01:58.607Z,29.40
2023-05-23T12:04:28.988Z,6.43
2023-05-23T12:06:56.304Z,4.68
2023-05-23T12:09:23.588Z,14.48
2023-05-23T12:11:51.297Z,4.20
2023-05-23T12:14:18.956Z,4.75
2023-05-23T12:16:49.676Z,7.32
2023-05-23T12:19:19.653Z,4.97
2023-05-23T12:21:49.181Z,5.30
2023-05-23T12:24:19.098Z,6.43
2023-05-23T12:26:59.912Z,5.95
2023-05-23T12:29:35.677Z,4.63
2023-05-23T12:32:04.996Z,5.40
2023-05-23T12:34:32.017Z,5.53
2023-05-23T12:37:18.257Z,4.40
2023-05-23T12:39:46.433Z,6.13
2023-05-23T12:42:13.535Z,6.03
2023-05-23T12:44:43.718Z,5.20
2023-05-23T12:47:10.924Z,4.53
2023-05-23T12:49:38.803Z,4.53
2023-05-23T12:52:06.363Z,5.07
2023-05-23T12:54:33.447Z,5.07
2023-05-23T12:57:00.547Z,4.70
2023-05-23T12:59:27.562Z,4.55
2023-05-23T13:01:54.901Z,5.50
2023-05-23T13:04:22.042Z,5.22
2023-05-23T13:06:49.160Z,4.22
2023-05-23T13:09:16.148Z,5.28
2023-05-23T13:11:43.195Z,6.07
2023-05-23T13:14:10.224Z,4.97
2023-05-23T13:16:38.832Z,9.05
2023-05-23T13:19:06.024Z,5.65
2023-05-23T13:21:33.086Z,4.43
2023-05-23T13:24:00.186Z,5.25
2023-05-23T13:26:27.365Z,5.18
2023-05-23T13:28:54.570Z,5.45
2023-05-23T13:31:22.280Z,6.28
2023-05-23T13:33:49.363Z,7.90
2023-05-23T13:36:16.394Z,4.63
2023-05-23T13:38:43.427Z,5.32
2023-05-23T13:41:10.522Z,10.10
2023-05-23T13:43:37.574Z,22.63
2023-05-23T13:46:04.714Z,26.90
2023-05-23T13:48:31.844Z,5.10
2023-05-23T13:50:59.272Z,6.07
2023-05-23T13:53:26.500Z,6.22
2023-05-23T13:55:53.627Z,6.18
2023-05-23T13:58:20.716Z,7.88
2023-05-23T14:00:47.806Z,5.50
2023-05-23T14:03:16.063Z,5.18
2023-05-23T14:05:43.256Z,14.82
2023-05-23T14:08:11.802Z,18.30
2023-05-23T14:10:42.224Z,6.70
2023-05-23T14:13:09.389Z,6.95
2023-05-23T14:15:38.543Z,4.68
2023-05-23T14:18:05.847Z,5.72
2023-05-23T14:20:33.240Z,6.30
2023-05-23T14:23:00.465Z,5.93
2023-05-23T14:25:27.771Z,35.30
2023-05-23T14:27:54.931Z,8.55
2023-05-23T14:30:22.014Z,6.03
2023-05-23T14:32:49.885Z,6.03
2023-05-23T14:35:17.259Z,6.13
2023-05-23T14:37:46.422Z,5.25
2023-05-23T14:40:14.280Z,10.13
2023-05-23T14:42:41.484Z,10.30
2023-05-23T14:45:09.124Z,5.97
2023-05-23T14:47:37.462Z,15.05
2023-05-23T14:50:04.922Z,6.97
2023-05-23T14:52:31.937Z,6.00
2023-05-23T14:54:59.087Z,6.30
2023-05-23T14:57:26.862Z,5.28
2023-05-23T14:59:53.875Z,6.22
2023-05-23T15:02:21.108Z,5.85
2023-05-23T15:04:48.644Z,5.38
2023-05-23T15:07:18.177Z,6.00
2023-05-23T15:09:47.788Z,9.55
2023-05-23T15:12:17.987Z,6.57
2023-05-23T15:14:45.140Z,6.43
2023-05-23T15:17:13.296Z,15.80
2023-05-23T15:19:43.123Z,7.78
2023-05-23T15:22:18.417Z,5.15
2023-05-23T15:25:00.501Z,4.53
2023-05-23T15:27:27.641Z,4.90
2023-05-23T15:29:54.671Z,44.88
2023-05-23T15:32:21.673Z,43.97
2023-05-23T15:34:48.827Z,35.10
2023-05-23T15:37:17.393Z,33.13
2023-05-23T15:39:44.690Z,17.80
2023-05-23T15:42:11.815Z,5.28
2023-05-23T15:44:38.922Z,5.32
2023-05-23T15:47:06.006Z,9.55
2023-05-23T15:49:33.057Z,12.82
2023-05-23T15:52:00.062Z,6.40
2023-05-23T15:54:27.115Z,7.60
2023-05-23T15:56:54.434Z,21.63
2023-05-23T15:59:21.654Z,64.97
2023-05-23T16:01:48.751Z,63.22
2023-05-23T16:04:16.238Z,60.20
2023-05-23T16:06:43.225Z,61.80
2023-05-23T16:09:10.315Z,60.75
2023-05-23T16:11:37.339Z,62.22
2023-05-23T16:14:04.355Z,60.97
2023-05-23T16:16:31.349Z,103.72
2023-05-23T16:18:58.466Z,59.60
2023-05-23T16:21:25.501Z,60.80
2023-05-23T16:23:53.352Z,58.92
2023-05-23T16:26:20.956Z,59.90
2023-05-23T16:28:48.017Z,61.15
2023-05-23T16:31:16.837Z,59.28
2023-05-23T16:33:44.950Z,82.07
2023-05-23T16:36:12.099Z,60.05
2023-05-23T16:38:39.153Z,60.08
2023-05-23T16:41:06.223Z,60.47
2023-05-23T16:43:34.970Z,60.97
2023-05-23T16:46:02.388Z,61.22
2023-05-23T16:48:29.420Z,59.63
2023-05-23T16:50:57.849Z,61.42
2023-05-23T16:53:24.994Z,61.88
2023-05-23T16:55:52.321Z,62.45
2023-05-23T16:58:21.066Z,62.08
2023-05-23T17:00:48.857Z,61.45
2023-05-23T17:03:16.404Z,60.38
2023-05-23T17:05:44.920Z,61.10
2023-05-23T17:08:12.395Z,61.35
2023-05-23T17:10:39.535Z,61.33
2023-05-23T17:13:06.698Z,59.47
2023-05-23T17:15:33.776Z,60.30
2023-05-23T17:18:00.972Z,60.80
2023-05-23T17:20:28.023Z,62.88
2023-05-23T17:22:55.085Z,60.53
2023-05-23T17:25:22.287Z,60.65
2023-05-23T17:27:49.377Z,62.25
2023-05-23T17:30:18.666Z,61.00
2023-05-23T17:32:47.276Z,62.22
2023-05-23T17:35:14.338Z,62.38
2023-05-23T17:37:43.681Z,63.30
2023-05-23T17:40:15.787Z,63.17
2023-05-23T17:42:42.972Z,63.22
2023-05-23T17:45:10.419Z,63.90
2023-05-23T17:47:37.492Z,62.30
2023-05-23T17:50:06.346Z,63.05
2023-05-23T17:52:33.532Z,64.43
2023-05-23T17:55:01.264Z,64.18
2023-05-23T17:57:30.230Z,65.57
2023-05-23T17:59:58.165Z,64.28
2023-05-23T18:02:25.504Z,63.85
2023-05-23T18:04:52.861Z,64.35
2023-05-23T18:07:20.153Z,64.43
2023-05-23T18:09:48.134Z,65.38
2023-05-23T18:12:16.543Z,68.10
2023-05-23T18:14:43.937Z,66.53
2023-05-23T18:17:11.120Z,67.97
2023-05-23T18:19:38.321Z,66.95
2023-05-23T18:22:05.624Z,66.57
2023-05-23T18:24:32.713Z,67.88
2023-05-23T18:27:00.336Z,68.35
2023-05-23T18:29:27.524Z,67.60
2023-05-23T18:31:54.548Z,66.68
2023-05-23T18:34:21.986Z,66.85
2023-05-23T18:36:49.070Z,67.85
2023-05-23T18:39:16.918Z,66.75
2023-05-23T18:41:44.000Z,66.28
2023-05-23T18:44:11.289Z,66.00
2023-05-23T18:46:38.360Z,66.38
2023-05-23T18:49:06.008Z,65.53
2023-05-23T18:51:33.908Z,132.90
2023-05-23T18:54:01.055Z,89.53
2023-05-23T18:56:28.096Z,88.53
2023-05-23T18:58:55.905Z,65.65
2023-05-23T19:01:23.060Z,66.20
2023-05-23T19:03:50.231Z,102.47
2023-05-23T19:06:17.274Z,81.40
2023-05-23T19:08:44.317Z,72.18
2023-05-23T19:11:11.354Z,65.70
2023-05-23T19:13:38.412Z,65.35
2023-05-23T19:16:05.708Z,76.88
2023-05-23T19:18:32.832Z,65.90
2023-05-23T19:21:00.583Z,65.80
2023-05-23T19:23:28.098Z,66.78
2023-05-23T19:25:55.099Z,69.38
2023-05-23T19:28:22.181Z,66.15
2023-05-23T19:30:49.415Z,72.85
2023-05-23T19:33:18.222Z,67.00
2023-05-23T19:35:46.702Z,67.93
2023-05-23T19:38:14.345Z,67.63
2023-05-23T19:40:41.675Z,68.78
2023-05-23T19:43:09.004Z,67.22
2023-05-23T19:45:37.140Z,66.47
2023-05-23T19:48:04.467Z,68.20
2023-05-23T19:50:31.577Z,67.88
2023-05-23T19:52:59.597Z,66.50
2023-05-23T19:55:27.470Z,67.28
2023-05-23T19:57:54.500Z,67.20
2023-05-23T20:00:21.661Z,66.65
2023-05-23T20:02:48.808Z,66.13
2023-05-23T20:05:16.417Z,66.75
2023-05-23T20:07:43.475Z,66.28
2023-05-23T20:10:11.243Z,68.25
2023-05-23T20:12:38.304Z,66.43
2023-05-23T20:15:06.324Z,67.50
2023-05-23T20:17:33.466Z,67.13
2023-05-23T20:20:00.741Z,65.93
2023-05-23T20:22:28.059Z,66.50
2023-05-23T20:24:55.093Z,66.43
2023-05-23T20:27:22.094Z,66.82
2023-05-23T20:29:50.480Z,66.70
2023-05-23T20:32:17.832Z,67.22
2023-05-23T20:34:44.961Z,67.35
2023-05-23T20:37:13.652Z,67.65
2023-05-23T20:39:44.189Z,67.15
2023-05-23T20:42:11.225Z,68.22
2023-05-23T20:44:38.800Z,66.97
2023-05-23T20:47:06.841Z,67.22
2023-05-23T20:49:34.959Z,67.35
2023-05-23T20:52:02.948Z,67.32
2023-05-23T20:54:29.958Z,67.75
2023-05-23T20:56:57.439Z,67.78
2023-05-23T20:59:26.138Z,67.20
2023-05-23T21:01:53.473Z,69.57
2023-05-23T21:04:20.476Z,66.85
2023-05-23T21:06:47.766Z,67.45
2023-05-23T21:09:16.604Z,68.63
2023-05-23T21:11:43.838Z,68.18
2023-05-23T21:14:11.036Z,67.97
2023-05-23T21:16:38.145Z,67.18
2023-05-23T21:19:05.353Z,67.35
2023-05-23T21:21:32.421Z,68.10
2023-05-23T21:23:59.438Z,69.82
2023-05-23T21:26:26.527Z,68.95
2023-05-23T21:28:53.478Z,69.07
2023-05-23T21:31:33.201Z,68.90
2023-05-23T21:34:18.510Z,67.15
2023-05-23T21:36:50.119Z,66.82
2023-05-23T21:39:17.087Z,67.55
2023-05-23T21:41:44.117Z,67.70
2023-05-23T21:44:13.480Z,67.57
2023-05-23T21:46:40.755Z,66.82
2023-05-23T21:49:07.848Z,66.85
2023-05-23T21:51:34.836Z,67.05
2023-05-23T21:54:01.800Z,67.78
2023-05-23T21:56:28.784Z,66.40
2023-05-23T21:58:55.844Z,68.30
2023-05-23T22:01:22.837Z,67.63
2023-05-23T22:03:50.012Z,67.72
2023-05-23T22:06:17.158Z,68.22
2023-05-23T22:08:46.089Z,67.22
2023-05-23T22:11:13.340Z,68.85
2023-05-23T22:13:40.819Z,67.88
2023-05-23T22:16:08.036Z,67.70
2023-05-23T22:21:07.360Z,66.70
2023-05-23T22:23:34.410Z,67.43
2023-05-23T22:26:01.348Z,67.22
2023-05-23T22:28:28.436Z,67.45
2023-05-23T22:30:56.482Z,68.00
2023-05-23T22:33:23.552Z,67.47
2023-05-23T22:35:50.573Z,66.47
2023-05-23T22:38:18.547Z,67.13
2023-05-23T22:40:45.572Z,68.20
2023-05-23T22:43:12.685Z,67.20
2023-05-23T22:45:42.634Z,68.22
2023-05-23T22:48:11.555Z,67.32
2023-05-23T22:50:42.677Z,67.25
2023-05-23T22:53:11.557Z,67.90
2023-05-23T22:55:40.642Z,67.78
2023-05-23T22:58:08.934Z,66.40
2023-05-23T23:00:36.679Z,66.97
2023-05-23T23:03:04.185Z,67.60
2023-05-23T23:05:31.537Z,67.38
2023-05-23T23:07:58.550Z,67.85
2023-05-23T23:10:25.735Z,67.40
2023-05-23T23:12:52.780Z,67.43
2023-05-23T23:15:19.776Z,67.80
2023-05-23T23:17:47.163Z,66.47
2023-05-23T23:20:14.888Z,67.45
2023-05-23T23:22:41.944Z,67.28
2023-05-23T23:25:12.654Z,66.88
2023-05-23T23:27:40.530Z,66.75
2023-05-23T23:30:08.615Z,67.32
2023-05-23T23:32:36.005Z,66.85
2023-05-23T23:35:03.073Z,66.53
2023-05-23T23:37:30.050Z,66.38
2023-05-23T23:39:57.315Z,67.30
2023-05-23T23:42:24.326Z,67.22
2023-05-23T23:44:51.706Z,96.05
2023-05-23T23:47:18.784Z,77.13
2023-05-23T23:49:45.897Z,100.05
2023-05-23T23:52:13.453Z,91.15
2023-05-23T23:54:40.459Z,95.00
2023-05-23T23:57:13.541Z,74.47
2023-05-23T23:59:43.722Z,75.95
